sensor_id;sensor_type;location;lat;lon;timestamp;P1;durP1;ratioP1;P2;durP2;ratioP2
30149;SDS011;16962;48.646;9.026;2023-12-29T00:00:45;4.78;;;3.55;;
30149;SDS011;16962;48.646;9.026;2023-12-29T00:03:37;4.65;;;3.30;;
30149;SDS011;16962;48.646;9.026;2023-12-29T00:06:30;4.10;;;3.25;;
30149;SDS011;16962;48.646;9.026;2023-12-29T00:09:28;5.25;;;3.47;;
30149;SDS011;16962;48.646;9.026;2023-12-29T00:12:25;3.90;;;3.10;;
30149;SDS011;16962;48.646;9.026;2023-12-29T00:15:18;5.65;;;3.65;;
30149;SDS011;16962;48.646;9.026;2023-12-29T00:18:09;4.75;;;3.47;;
30149;SDS011;16962;48.646;9.026;2023-12-29T00:21:02;5.90;;;3.80;;
30149;SDS011;16962;48.646;9.026;2023-12-29T00:24:04;4.80;;;3.20;;
30149;SDS011;16962;48.646;9.026;2023-12-29T00:27:00;5.18;;;3.42;;
30149;SDS011;16962;48.646;9.026;2023-12-29T00:29:59;5.00;;;3.08;;
30149;SDS011;16962;48.646;9.026;2023-12-29T00:32:53;5.93;;;3.30;;
30149;SDS011;16962;48.646;9.026;2023-12-29T00:35:47;4.60;;;3.38;;
30149;SDS011;16962;48.646;9.026;2023-12-29T00:38:37;5.30;;;3.08;;
30149;SDS011;16962;48.646;9.026;2023-12-29T00:41:27;5.72;;;3.55;;
30149;SDS011;16962;48.646;9.026;2023-12-29T00:44:30;4.72;;;3.50;;
30149;SDS011;16962;48.646;9.026;2023-12-29T00:47:23;5.97;;;3.80;;
30149;SDS011;16962;48.646;9.026;2023-12-29T00:50:27;7.35;;;4.03;;
30149;SDS011;16962;48.646;9.026;2023-12-29T00:53:22;5.40;;;3.88;;
30149;SDS011;16962;48.646;9.026;2023-12-29T00:56:27;4.72;;;4.07;;
30149;SDS011;16962;48.646;9.026;2023-12-29T00:59:19;6.50;;;3.67;;
30149;SDS011;16962;48.646;9.026;2023-12-29T01:02:22;5.72;;;4.35;;
30149;SDS011;16962;48.646;9.026;2023-12-29T01:05:19;6.22;;;3.80;;
30149;SDS011;16962;48.646;9.026;2023-12-29T01:08:10;6.53;;;3.70;;
30149;SDS011;16962;48.646;9.026;2023-12-29T01:11:06;5.78;;;3.67;;
30149;SDS011;16962;48.646;9.026;2023-12-29T01:13:56;4.40;;;3.80;;
30149;SDS011;16962;48.646;9.026;2023-12-29T01:16:44;5.03;;;3.83;;
30149;SDS011;16962;48.646;9.026;2023-12-29T01:19:36;5.22;;;4.32;;
30149;SDS011;16962;48.646;9.026;2023-12-29T01:22:37;6.25;;;4.03;;
30149;SDS011;16962;48.646;9.026;2023-12-29T01:25:24;4.95;;;4.15;;
30149;SDS011;16962;48.646;9.026;2023-12-29T01:28:17;5.07;;;3.97;;
30149;SDS011;16962;48.646;9.026;2023-12-29T01:31:05;5.60;;;4.40;;
30149;SDS011;16962;48.646;9.026;2023-12-29T01:34:11;6.85;;;4.22;;
30149;SDS011;16962;48.646;9.026;2023-12-29T01:37:03;4.80;;;3.75;;
30149;SDS011;16962;48.646;9.026;2023-12-29T01:40:01;5.88;;;4.47;;
30149;SDS011;16962;48.646;9.026;2023-12-29T01:45:51;7.05;;;4.40;;
30149;SDS011;16962;48.646;9.026;2023-12-29T01:48:48;5.35;;;3.90;;
30149;SDS011;16962;48.646;9.026;2023-12-29T01:51:45;5.00;;;3.92;;
30149;SDS011;16962;48.646;9.026;2023-12-29T01:54:46;6.47;;;4.45;;
30149;SDS011;16962;48.646;9.026;2023-12-29T01:57:43;6.07;;;4.57;;
30149;SDS011;16962;48.646;9.026;2023-12-29T02:00:36;5.30;;;4.10;;
30149;SDS011;16962;48.646;9.026;2023-12-29T02:03:29;4.95;;;4.38;;
30149;SDS011;16962;48.646;9.026;2023-12-29T02:06:19;6.10;;;4.38;;
30149;SDS011;16962;48.646;9.026;2023-12-29T02:09:13;5.90;;;4.40;;
30149;SDS011;16962;48.646;9.026;2023-12-29T02:12:12;8.07;;;5.20;;
30149;SDS011;16962;48.646;9.026;2023-12-29T02:15:08;5.97;;;4.30;;
30149;SDS011;16962;48.646;9.026;2023-12-29T02:18:02;7.88;;;4.90;;
30149;SDS011;16962;48.646;9.026;2023-12-29T02:20:53;5.07;;;4.40;;
30149;SDS011;16962;48.646;9.026;2023-12-29T02:23:46;5.40;;;4.78;;
30149;SDS011;16962;48.646;9.026;2023-12-29T02:26:36;6.53;;;5.05;;
30149;SDS011;16962;48.646;9.026;2023-12-29T02:29:26;6.55;;;4.78;;
30149;SDS011;16962;48.646;9.026;2023-12-29T02:32:26;7.15;;;4.57;;
30149;SDS011;16962;48.646;9.026;2023-12-29T02:35:32;7.07;;;5.20;;
30149;SDS011;16962;48.646;9.026;2023-12-29T02:38:48;6.38;;;4.97;;
30149;SDS011;16962;48.646;9.026;2023-12-29T02:41:38;13.85;;;5.95;;
30149;SDS011;16962;48.646;9.026;2023-12-29T02:44:31;9.20;;;5.15;;
30149;SDS011;16962;48.646;9.026;2023-12-29T02:47:28;6.07;;;5.18;;
30149;SDS011;16962;48.646;9.026;2023-12-29T02:50:24;7.25;;;5.65;;
30149;SDS011;16962;48.646;9.026;2023-12-29T02:53:26;9.45;;;5.25;;
30149;SDS011;16962;48.646;9.026;2023-12-29T02:56:18;8.38;;;5.45;;
30149;SDS011;16962;48.646;9.026;2023-12-29T03:03:06;10.73;;;6.15;;
30149;SDS011;16962;48.646;9.026;2023-12-29T03:06:03;8.80;;;6.30;;
30149;SDS011;16962;48.646;9.026;2023-12-29T03:08:53;9.43;;;5.60;;
30149;SDS011;16962;48.646;9.026;2023-12-29T03:11:42;11.70;;;6.40;;
30149;SDS011;16962;48.646;9.026;2023-12-29T03:14:40;8.25;;;5.43;;
30149;SDS011;16962;48.646;9.026;2023-12-29T03:17:51;10.50;;;5.70;;
30149;SDS011;16962;48.646;9.026;2023-12-29T03:20:53;9.93;;;5.85;;
30149;SDS011;16962;48.646;9.026;2023-12-29T03:23:50;7.50;;;5.70;;
30149;SDS011;16962;48.646;9.026;2023-12-29T03:26:52;6.88;;;5.28;;
30149;SDS011;16962;48.646;9.026;2023-12-29T03:29:44;9.93;;;5.72;;
30149;SDS011;16962;48.646;9.026;2023-12-29T03:32:44;6.53;;;5.22;;
30149;SDS011;16962;48.646;9.026;2023-12-29T03:38:36;8.88;;;5.05;;
30149;SDS011;16962;48.646;9.026;2023-12-29T03:41:32;7.93;;;5.65;;
30149;SDS011;16962;48.646;9.026;2023-12-29T03:44:28;7.18;;;5.18;;
30149;SDS011;16962;48.646;9.026;2023-12-29T03:47:18;6.18;;;5.07;;
30149;SDS011;16962;48.646;9.026;2023-12-29T03:50:17;7.80;;;5.95;;
30149;SDS011;16962;48.646;9.026;2023-12-29T03:53:13;7.53;;;5.80;;
30149;SDS011;16962;48.646;9.026;2023-12-29T03:56:04;10.98;;;6.10;;
30149;SDS011;16962;48.646;9.026;2023-12-29T03:59:14;9.00;;;5.88;;
30149;SDS011;16962;48.646;9.026;2023-12-29T04:02:09;7.80;;;5.72;;
30149;SDS011;16962;48.646;9.026;2023-12-29T04:05:05;8.10;;;6.68;;
30149;SDS011;16962;48.646;9.026;2023-12-29T04:07:59;8.30;;;6.07;;
30149;SDS011;16962;48.646;9.026;2023-12-29T04:10:56;6.28;;;5.43;;
30149;SDS011;16962;48.646;9.026;2023-12-29T04:13:57;7.22;;;5.85;;
30149;SDS011;16962;48.646;9.026;2023-12-29T04:16:52;7.47;;;6.20;;
30149;SDS011;16962;48.646;9.026;2023-12-29T04:19:44;6.20;;;5.05;;
30149;SDS011;16962;48.646;9.026;2023-12-29T04:22:36;6.68;;;5.35;;
30149;SDS011;16962;48.646;9.026;2023-12-29T04:25:23;6.60;;;5.15;;
30149;SDS011;16962;48.646;9.026;2023-12-29T04:28:20;6.25;;;5.13;;
30149;SDS011;16962;48.646;9.026;2023-12-29T04:31:12;7.40;;;5.10;;
30149;SDS011;16962;48.646;9.026;2023-12-29T04:34:21;8.60;;;5.88;;
30149;SDS011;16962;48.646;9.026;2023-12-29T04:37:12;7.68;;;5.88;;
30149;SDS011;16962;48.646;9.026;2023-12-29T04:40:03;10.18;;;5.63;;
30149;SDS011;16962;48.646;9.026;2023-12-29T04:43:18;7.22;;;5.60;;
30149;SDS011;16962;48.646;9.026;2023-12-29T04:46:08;9.02;;;6.00;;
30149;SDS011;16962;48.646;9.026;2023-12-29T04:51:49;7.53;;;5.35;;
30149;SDS011;16962;48.646;9.026;2023-12-29T04:54:41;7.50;;;6.32;;
30149;SDS011;16962;48.646;9.026;2023-12-29T04:57:50;7.75;;;6.03;;
30149;SDS011;16962;48.646;9.026;2023-12-29T05:00:56;8.47;;;6.13;;
30149;SDS011;16962;48.646;9.026;2023-12-29T05:04:06;10.10;;;6.43;;
30149;SDS011;16962;48.646;9.026;2023-12-29T05:07:05;9.13;;;6.57;;
30149;SDS011;16962;48.646;9.026;2023-12-29T05:10:23;9.10;;;6.50;;
30149;SDS011;16962;48.646;9.026;2023-12-29T05:13:18;7.50;;;6.68;;
30149;SDS011;16962;48.646;9.026;2023-12-29T05:19:11;9.18;;;6.53;;
30149;SDS011;16962;48.646;9.026;2023-12-29T05:22:16;8.52;;;6.18;;
30149;SDS011;16962;48.646;9.026;2023-12-29T05:25:13;8.25;;;6.13;;
30149;SDS011;16962;48.646;9.026;2023-12-29T05:28:02;9.35;;;5.22;;
30149;SDS011;16962;48.646;9.026;2023-12-29T05:30:55;9.50;;;6.03;;
30149;SDS011;16962;48.646;9.026;2023-12-29T05:33:58;7.90;;;5.60;;
30149;SDS011;16962;48.646;9.026;2023-12-29T05:37:00;9.40;;;5.95;;
30149;SDS011;16962;48.646;9.026;2023-12-29T05:39:54;6.10;;;5.50;;
30149;SDS011;16962;48.646;9.026;2023-12-29T05:42:55;9.38;;;5.95;;
30149;SDS011;16962;48.646;9.026;2023-12-29T05:45:52;8.35;;;5.80;;
30149;SDS011;16962;48.646;9.026;2023-12-29T05:48:46;7.78;;;5.82;;
30149;SDS011;16962;48.646;9.026;2023-12-29T05:51:48;10.50;;;6.55;;
30149;SDS011;16962;48.646;9.026;2023-12-29T05:54:44;10.68;;;6.38;;
30149;SDS011;16962;48.646;9.026;2023-12-29T05:57:44;9.85;;;6.00;;
30149;SDS011;16962;48.646;9.026;2023-12-29T06:00:51;7.78;;;5.80;;
30149;SDS011;16962;48.646;9.026;2023-12-29T06:03:54;12.18;;;6.47;;
30149;SDS011;16962;48.646;9.026;2023-12-29T06:06:46;12.53;;;6.17;;
30149;SDS011;16962;48.646;9.026;2023-12-29T06:09:44;10.68;;;5.90;;
30149;SDS011;16962;48.646;9.026;2023-12-29T06:12:37;6.43;;;5.75;;
30149;SDS011;16962;48.646;9.026;2023-12-29T06:15:46;9.85;;;6.72;;
30149;SDS011;16962;48.646;9.026;2023-12-29T06:18:50;7.93;;;6.47;;
30149;SDS011;16962;48.646;9.026;2023-12-29T06:21:43;10.48;;;6.40;;
30149;SDS011;16962;48.646;9.026;2023-12-29T06:24:45;10.80;;;6.18;;
30149;SDS011;16962;48.646;9.026;2023-12-29T06:27:50;9.63;;;6.68;;
30149;SDS011;16962;48.646;9.026;2023-12-29T06:30:41;8.77;;;5.55;;
30149;SDS011;16962;48.646;9.026;2023-12-29T06:33:38;11.20;;;6.13;;
30149;SDS011;16962;48.646;9.026;2023-12-29T06:36:40;6.88;;;5.97;;
30149;SDS011;16962;48.646;9.026;2023-12-29T06:39:52;10.77;;;7.35;;
30149;SDS011;16962;48.646;9.026;2023-12-29T06:42:49;7.40;;;5.85;;
30149;SDS011;16962;48.646;9.026;2023-12-29T06:45:49;8.18;;;6.70;;
30149;SDS011;16962;48.646;9.026;2023-12-29T06:52:02;9.48;;;6.70;;
30149;SDS011;16962;48.646;9.026;2023-12-29T06:55:31;9.02;;;5.97;;
30149;SDS011;16962;48.646;9.026;2023-12-29T06:58:30;8.27;;;6.10;;
30149;SDS011;16962;48.646;9.026;2023-12-29T07:04:36;9.35;;;6.20;;
30149;SDS011;16962;48.646;9.026;2023-12-29T07:07:31;8.20;;;5.97;;
30149;SDS011;16962;48.646;9.026;2023-12-29T07:10:28;8.32;;;6.40;;
30149;SDS011;16962;48.646;9.026;2023-12-29T07:13:29;6.63;;;5.35;;
30149;SDS011;16962;48.646;9.026;2023-12-29T07:16:23;8.20;;;6.25;;
30149;SDS011;16962;48.646;9.026;2023-12-29T07:19:41;5.80;;;5.20;;
30149;SDS011;16962;48.646;9.026;2023-12-29T07:22:54;9.23;;;5.85;;
30149;SDS011;16962;48.646;9.026;2023-12-29T07:25:50;7.30;;;5.55;;
30149;SDS011;16962;48.646;9.026;2023-12-29T07:29:01;11.90;;;6.03;;
30149;SDS011;16962;48.646;9.026;2023-12-29T07:32:04;8.32;;;5.75;;
30149;SDS011;16962;48.646;9.026;2023-12-29T07:34:52;10.45;;;6.57;;
30149;SDS011;16962;48.646;9.026;2023-12-29T07:37:43;8.27;;;6.32;;
30149;SDS011;16962;48.646;9.026;2023-12-29T07:40:34;7.15;;;5.97;;
30149;SDS011;16962;48.646;9.026;2023-12-29T07:43:27;6.82;;;5.65;;
30149;SDS011;16962;48.646;9.026;2023-12-29T07:46:30;7.25;;;5.65;;
30149;SDS011;16962;48.646;9.026;2023-12-29T07:49:21;9.20;;;6.40;;
30149;SDS011;16962;48.646;9.026;2023-12-29T07:55:15;7.88;;;6.07;;
30149;SDS011;16962;48.646;9.026;2023-12-29T07:58:05;8.82;;;6.50;;
30149;SDS011;16962;48.646;9.026;2023-12-29T08:01:14;9.70;;;6.93;;
30149;SDS011;16962;48.646;9.026;2023-12-29T08:07:11;11.27;;;6.70;;
30149;SDS011;16962;48.646;9.026;2023-12-29T08:10:05;8.27;;;6.60;;
30149;SDS011;16962;48.646;9.026;2023-12-29T08:12:53;8.35;;;6.43;;
30149;SDS011;16962;48.646;9.026;2023-12-29T08:15:44;9.65;;;7.70;;
30149;SDS011;16962;48.646;9.026;2023-12-29T08:18:32;10.27;;;7.03;;
30149;SDS011;16962;48.646;9.026;2023-12-29T08:21:22;10.30;;;6.35;;
30149;SDS011;16962;48.646;9.026;2023-12-29T08:24:12;10.13;;;6.45;;
30149;SDS011;16962;48.646;9.026;2023-12-29T08:27:03;8.23;;;6.00;;
30149;SDS011;16962;48.646;9.026;2023-12-29T08:29:53;8.75;;;5.65;;
30149;SDS011;16962;48.646;9.026;2023-12-29T08:32:42;7.93;;;5.15;;
30149;SDS011;16962;48.646;9.026;2023-12-29T08:35:43;6.85;;;5.38;;
30149;SDS011;16962;48.646;9.026;2023-12-29T08:38:34;6.10;;;4.68;;
30149;SDS011;16962;48.646;9.026;2023-12-29T08:41:40;8.07;;;4.97;;
30149;SDS011;16962;48.646;9.026;2023-12-29T08:44:49;6.03;;;4.53;;
30149;SDS011;16962;48.646;9.026;2023-12-29T08:47:55;8.18;;;4.55;;
30149;SDS011;16962;48.646;9.026;2023-12-29T08:50:45;6.65;;;4.85;;
30149;SDS011;16962;48.646;9.026;2023-12-29T08:53:32;5.15;;;4.07;;
30149;SDS011;16962;48.646;9.026;2023-12-29T08:56:28;4.85;;;4.35;;
30149;SDS011;16962;48.646;9.026;2023-12-29T08:59:41;5.78;;;4.07;;
30149;SDS011;16962;48.646;9.026;2023-12-29T09:02:40;6.22;;;4.38;;
30149;SDS011;16962;48.646;9.026;2023-12-29T09:05:32;5.45;;;4.25;;
30149;SDS011;16962;48.646;9.026;2023-12-29T09:08:20;4.22;;;3.83;;
30149;SDS011;16962;48.646;9.026;2023-12-29T09:11:08;6.15;;;4.43;;
30149;SDS011;16962;48.646;9.026;2023-12-29T09:13:59;4.38;;;3.58;;
30149;SDS011;16962;48.646;9.026;2023-12-29T09:16:50;6.05;;;3.60;;
30149;SDS011;16962;48.646;9.026;2023-12-29T09:19:53;5.10;;;4.10;;
30149;SDS011;16962;48.646;9.026;2023-12-29T09:22:55;4.25;;;3.33;;
30149;SDS011;16962;48.646;9.026;2023-12-29T09:25:45;4.20;;;3.53;;
30149;SDS011;16962;48.646;9.026;2023-12-29T09:28:33;5.93;;;3.67;;
30149;SDS011;16962;48.646;9.026;2023-12-29T09:31:22;3.40;;;3.10;;
30149;SDS011;16962;48.646;9.026;2023-12-29T09:34:12;5.43;;;3.45;;
30149;SDS011;16962;48.646;9.026;2023-12-29T09:37:06;4.30;;;3.83;;
30149;SDS011;16962;48.646;9.026;2023-12-29T09:39:53;4.70;;;3.80;;
30149;SDS011;16962;48.646;9.026;2023-12-29T09:42:43;4.38;;;3.92;;
30149;SDS011;16962;48.646;9.026;2023-12-29T09:45:36;5.15;;;4.50;;
30149;SDS011;16962;48.646;9.026;2023-12-29T09:48:28;5.90;;;4.40;;
30149;SDS011;16962;48.646;9.026;2023-12-29T09:51:18;5.60;;;3.85;;
30149;SDS011;16962;48.646;9.026;2023-12-29T09:54:10;5.13;;;3.80;;
30149;SDS011;16962;48.646;9.026;2023-12-29T09:57:04;6.00;;;3.92;;
30149;SDS011;16962;48.646;9.026;2023-12-29T09:59:52;6.15;;;4.28;;
30149;SDS011;16962;48.646;9.026;2023-12-29T10:02:42;4.10;;;3.70;;
30149;SDS011;16962;48.646;9.026;2023-12-29T10:05:30;4.18;;;3.78;;
30149;SDS011;16962;48.646;9.026;2023-12-29T10:08:22;3.97;;;3.58;;
30149;SDS011;16962;48.646;9.026;2023-12-29T10:11:18;3.65;;;3.35;;
30149;SDS011;16962;48.646;9.026;2023-12-29T10:14:18;3.20;;;2.80;;
30149;SDS011;16962;48.646;9.026;2023-12-29T10:17:34;2.78;;;2.50;;
30149;SDS011;16962;48.646;9.026;2023-12-29T10:20:36;4.35;;;2.80;;
30149;SDS011;16962;48.646;9.026;2023-12-29T10:23:42;3.08;;;2.78;;
30149;SDS011;16962;48.646;9.026;2023-12-29T10:27:05;3.30;;;2.22;;
30149;SDS011;16962;48.646;9.026;2023-12-29T10:29:53;2.90;;;2.33;;
30149;SDS011;16962;48.646;9.026;2023-12-29T10:32:42;3.58;;;2.70;;
30149;SDS011;16962;48.646;9.026;2023-12-29T10:35:30;5.85;;;2.20;;
30149;SDS011;16962;48.646;9.026;2023-12-29T10:38:22;4.68;;;2.20;;
30149;SDS011;16962;48.646;9.026;2023-12-29T10:41:18;2.40;;;2.20;;
30149;SDS011;16962;48.646;9.026;2023-12-29T10:44:16;2.92;;;2.00;;
30149;SDS011;16962;48.646;9.026;2023-12-29T10:47:59;2.45;;;1.92;;
30149;SDS011;16962;48.646;9.026;2023-12-29T10:51:28;2.15;;;1.65;;
30149;SDS011;16962;48.646;9.026;2023-12-29T10:54:22;1.95;;;1.70;;
30149;SDS011;16962;48.646;9.026;2023-12-29T10:57:25;3.60;;;2.05;;
30149;SDS011;16962;48.646;9.026;2023-12-29T11:00:24;2.20;;;1.52;;
30149;SDS011;16962;48.646;9.026;2023-12-29T11:03:37;1.70;;;1.60;;
30149;SDS011;16962;48.646;9.026;2023-12-29T11:09:42;3.63;;;2.10;;
30149;SDS011;16962;48.646;9.026;2023-12-29T11:12:44;1.50;;;1.40;;
30149;SDS011;16962;48.646;9.026;2023-12-29T11:15:59;2.42;;;1.80;;
30149;SDS011;16962;48.646;9.026;2023-12-29T11:19:03;3.53;;;2.22;;
30149;SDS011;16962;48.646;9.026;2023-12-29T11:22:01;2.15;;;1.70;;
30149;SDS011;16962;48.646;9.026;2023-12-29T11:24:59;2.83;;;1.67;;
30149;SDS011;16962;48.646;9.026;2023-12-29T11:27:47;2.22;;;1.55;;
30149;SDS011;16962;48.646;9.026;2023-12-29T11:30:38;2.33;;;1.67;;
30149;SDS011;16962;48.646;9.026;2023-12-29T11:33:29;1.27;;;1.20;;
30149;SDS011;16962;48.646;9.026;2023-12-29T11:36:31;2.15;;;1.40;;
30149;SDS011;16962;48.646;9.026;2023-12-29T11:42:18;2.38;;;1.40;;
30149;SDS011;16962;48.646;9.026;2023-12-29T11:51:49;1.67;;;1.55;;
30149;SDS011;16962;48.646;9.026;2023-12-29T11:54:37;1.77;;;1.55;;
30149;SDS011;16962;48.646;9.026;2023-12-29T11:57:31;1.70;;;1.42;;
30149;SDS011;16962;48.646;9.026;2023-12-29T12:00:20;4.20;;;2.65;;
30149;SDS011;16962;48.646;9.026;2023-12-29T12:03:31;3.90;;;3.00;;
30149;SDS011;16962;48.646;9.026;2023-12-29T12:06:36;2.08;;;1.42;;
30149;SDS011;16962;48.646;9.026;2023-12-29T12:09:25;1.40;;;1.30;;
30149;SDS011;16962;48.646;9.026;2023-12-29T12:12:13;3.35;;;1.50;;
30149;SDS011;16962;48.646;9.026;2023-12-29T12:15:00;3.30;;;1.85;;
30149;SDS011;16962;48.646;9.026;2023-12-29T12:17:50;2.58;;;1.42;;
30149;SDS011;16962;48.646;9.026;2023-12-29T12:20:39;1.70;;;1.50;;
30149;SDS011;16962;48.646;9.026;2023-12-29T12:23:26;1.85;;;1.42;;
30149;SDS011;16962;48.646;9.026;2023-12-29T12:26:19;3.78;;;1.80;;
30149;SDS011;16962;48.646;9.026;2023-12-29T12:29:10;1.52;;;1.42;;
30149;SDS011;16962;48.646;9.026;2023-12-29T12:32:00;1.60;;;1.50;;
30149;SDS011;16962;48.646;9.026;2023-12-29T12:34:47;1.30;;;1.20;;
30149;SDS011;16962;48.646;9.026;2023-12-29T12:37:35;1.67;;;1.40;;
30149;SDS011;16962;48.646;9.026;2023-12-29T12:40:26;1.35;;;1.25;;
30149;SDS011;16962;48.646;9.026;2023-12-29T12:43:15;1.80;;;1.30;;
30149;SDS011;16962;48.646;9.026;2023-12-29T12:46:06;1.88;;;1.40;;
30149;SDS011;16962;48.646;9.026;2023-12-29T12:48:58;1.30;;;1.20;;
30149;SDS011;16962;48.646;9.026;2023-12-29T12:51:52;2.10;;;1.60;;
30149;SDS011;16962;48.646;9.026;2023-12-29T12:54:41;1.88;;;1.60;;
30149;SDS011;16962;48.646;9.026;2023-12-29T12:57:36;1.73;;;1.35;;
30149;SDS011;16962;48.646;9.026;2023-12-29T13:00:24;2.05;;;1.40;;
30149;SDS011;16962;48.646;9.026;2023-12-29T13:03:24;2.25;;;1.10;;
30149;SDS011;16962;48.646;9.026;2023-12-29T13:06:11;2.50;;;1.30;;
30149;SDS011;16962;48.646;9.026;2023-12-29T13:08:59;2.63;;;1.48;;
30149;SDS011;16962;48.646;9.026;2023-12-29T13:11:58;1.75;;;1.35;;
30149;SDS011;16962;48.646;9.026;2023-12-29T13:15:04;1.80;;;1.70;;
30149;SDS011;16962;48.646;9.026;2023-12-29T13:17:58;2.33;;;1.17;;
30149;SDS011;16962;48.646;9.026;2023-12-29T13:20:50;2.25;;;1.20;;
30149;SDS011;16962;48.646;9.026;2023-12-29T13:23:37;2.42;;;1.75;;
30149;SDS011;16962;48.646;9.026;2023-12-29T13:26:26;1.58;;;1.30;;
30149;SDS011;16962;48.646;9.026;2023-12-29T13:29:15;2.33;;;1.60;;
30149;SDS011;16962;48.646;9.026;2023-12-29T13:38:52;2.80;;;1.77;;
30149;SDS011;16962;48.646;9.026;2023-12-29T13:41:44;1.67;;;1.45;;
30149;SDS011;16962;48.646;9.026;2023-12-29T13:44:35;3.33;;;1.70;;
30149;SDS011;16962;48.646;9.026;2023-12-29T13:47:26;2.30;;;1.88;;
30149;SDS011;16962;48.646;9.026;2023-12-29T13:50:18;3.67;;;1.85;;
30149;SDS011;16962;48.646;9.026;2023-12-29T13:53:08;2.65;;;1.40;;
30149;SDS011;16962;48.646;9.026;2023-12-29T13:56:08;2.85;;;1.90;;
30149;SDS011;16962;48.646;9.026;2023-12-29T13:58:57;2.88;;;1.60;;
30149;SDS011;16962;48.646;9.026;2023-12-29T14:01:54;2.47;;;2.00;;
30149;SDS011;16962;48.646;9.026;2023-12-29T14:04:42;4.38;;;2.45;;
30149;SDS011;16962;48.646;9.026;2023-12-29T14:07:31;2.67;;;1.80;;
30149;SDS011;16962;48.646;9.026;2023-12-29T14:10:19;2.35;;;2.00;;
30149;SDS011;16962;48.646;9.026;2023-12-29T14:13:17;6.10;;;2.55;;
30149;SDS011;16962;48.646;9.026;2023-12-29T14:16:05;2.72;;;1.77;;
30149;SDS011;16962;48.646;9.026;2023-12-29T14:18:53;3.72;;;2.10;;
30149;SDS011;16962;48.646;9.026;2023-12-29T14:21:54;3.60;;;2.00;;
30149;SDS011;16962;48.646;9.026;2023-12-29T14:24:42;2.03;;;1.80;;
30149;SDS011;16962;48.646;9.026;2023-12-29T14:27:32;1.75;;;1.65;;
30149;SDS011;16962;48.646;9.026;2023-12-29T14:30:19;4.35;;;2.10;;
30149;SDS011;16962;48.646;9.026;2023-12-29T14:33:06;2.47;;;1.70;;
30149;SDS011;16962;48.646;9.026;2023-12-29T14:35:56;2.92;;;1.80;;
30149;SDS011;16962;48.646;9.026;2023-12-29T14:38:43;2.47;;;1.90;;
30149;SDS011;16962;48.646;9.026;2023-12-29T14:41:31;2.70;;;1.67;;
30149;SDS011;16962;48.646;9.026;2023-12-29T14:44:19;2.20;;;1.90;;
30149;SDS011;16962;48.646;9.026;2023-12-29T14:47:08;2.72;;;1.90;;
30149;SDS011;16962;48.646;9.026;2023-12-29T14:49:57;4.50;;;2.30;;
30149;SDS011;16962;48.646;9.026;2023-12-29T14:52:45;3.10;;;2.10;;
30149;SDS011;16962;48.646;9.026;2023-12-29T14:55:34;3.58;;;1.83;;
30149;SDS011;16962;48.646;9.026;2023-12-29T14:58:24;5.85;;;2.17;;
30149;SDS011;16962;48.646;9.026;2023-12-29T15:01:12;2.90;;;2.00;;
30149;SDS011;16962;48.646;9.026;2023-12-29T15:04:00;2.40;;;2.20;;
30149;SDS011;16962;48.646;9.026;2023-12-29T15:06:47;2.67;;;2.10;;
30149;SDS011;16962;48.646;9.026;2023-12-29T15:09:36;2.60;;;1.95;;
30149;SDS011;16962;48.646;9.026;2023-12-29T15:12:29;2.75;;;1.83;;
30149;SDS011;16962;48.646;9.026;2023-12-29T15:15:17;2.72;;;1.80;;
30149;SDS011;16962;48.646;9.026;2023-12-29T15:18:07;3.63;;;1.90;;
30149;SDS011;16962;48.646;9.026;2023-12-29T15:21:28;4.38;;;2.83;;
30149;SDS011;16962;48.646;9.026;2023-12-29T15:24:39;2.40;;;2.20;;
30149;SDS011;16962;48.646;9.026;2023-12-29T15:31:30;2.50;;;2.00;;
30149;SDS011;16962;48.646;9.026;2023-12-29T15:34:23;3.45;;;2.40;;
30149;SDS011;16962;48.646;9.026;2023-12-29T15:37:13;4.25;;;2.33;;
30149;SDS011;16962;48.646;9.026;2023-12-29T15:40:03;2.17;;;1.80;;
30149;SDS011;16962;48.646;9.026;2023-12-29T15:42:54;2.53;;;1.80;;
30149;SDS011;16962;48.646;9.026;2023-12-29T15:49:11;2.72;;;2.10;;
30149;SDS011;16962;48.646;9.026;2023-12-29T15:52:03;2.45;;;2.20;;
30149;SDS011;16962;48.646;9.026;2023-12-29T15:54:56;4.70;;;2.53;;
30149;SDS011;16962;48.646;9.026;2023-12-29T15:57:52;2.92;;;2.60;;
30149;SDS011;16962;48.646;9.026;2023-12-29T16:00:43;3.83;;;3.13;;
30149;SDS011;16962;48.646;9.026;2023-12-29T16:03:33;3.45;;;2.70;;
30149;SDS011;16962;48.646;9.026;2023-12-29T16:09:39;8.23;;;4.20;;
30149;SDS011;16962;48.646;9.026;2023-12-29T16:12:31;4.00;;;2.53;;
30149;SDS011;16962;48.646;9.026;2023-12-29T16:15:22;5.30;;;3.00;;
30149;SDS011;16962;48.646;9.026;2023-12-29T16:18:18;7.18;;;3.25;;
30149;SDS011;16962;48.646;9.026;2023-12-29T16:21:15;6.55;;;3.10;;
30149;SDS011;16962;48.646;9.026;2023-12-29T16:24:06;3.75;;;2.85;;
